Currently N/A°F in Anza, California, USA
N/A°F Alert
N/A°F / N/A°F
N/A
N/A
Tuesday, January 19, 2021 4:13 AM PST

Anza, California Weather Summary
Last 36 Hours

Temperature Winds Hourly Humidity Dewpoint
Time Report Norm Report Norm Max Gusts Precip. Rpt. Norm Rpt. Norm Pressure
1Thu 09:42 PM  42.8°F  43°F  calm  4 mph  none  0.00"  100%  71%  43°F  34°F  N/A
Thu 09:00 PM  42.9°F  44°F  calm  4 mph  none  0.00"  100%  70%  43°F  35°F  N/A
Thu 08:00 PM  42.7°F  45°F  calm  4 mph  none  0.00"  100%  69%  43°F  35°F  N/A
Thu 07:00 PM  43.8°F  46°F  calm  4 mph  none  0.00"  99%  68%  44°F  35°F  N/A
Thu 06:00 PM  43.0°F  47°F  calm  4 mph  none  0.00"  98%  66%  42°F  36°F  N/A
Thu 05:00 PM  45.5°F  50°F  calm  4 mph  none  0.00"  96%  61%  44°F  36°F  N/A
Thu 04:00 PM  50.0°F  54°F  calm  6 mph  none  0.00"  84%  53%  45°F  37°F  N/A
Thu 03:00 PM  54.5°F  56°F  calm  7 mph  none  0.00"  64%  50%  42°F  37°F  N/A
Thu 02:00 PM  56.9°F  58°F  calm  7 mph  none  0.00"  50%  48%  38°F  37°F  N/A
Thu 01:00 PM  57.5°F  58°F  calm  8 mph  none  0.00"  38%  47%  31°F  37°F  N/A
2Thu 12:36 PM  58.3°F  58°F  calm  8 mph  none  ----  41%  47%  34°F  37°F  N/A
Thu 12:00 PM  56.2°F  58°F  calm  8 mph  none  0.00"  42%  48%  32°F  37°F  N/A
Thu 11:00 AM  57.1°F  57°F  calm  7 mph  none  0.00"  39%  49%  32°F  37°F  N/A
Thu 10:00 AM  55.2°F  55°F  calm  7 mph  none  0.00"  38%  51%  29°F  37°F  N/A
Thu 09:00 AM  52.2°F  52°F  calm  6 mph  none  0.00"  43%  57%  29°F  37°F  N/A
Thu 08:00 AM  48.4°F  48°F  calm  4 mph  none  0.00"  47%  63%  28°F  36°F  N/A
Thu 07:00 AM  40.7°F  43°F  calm  4 mph  none  0.00"  61%  69%  28°F  33°F  N/A
Thu 06:00 AM  40.4°F  43°F  calm  4 mph  none  0.00"  63%  69%  28°F  33°F  N/A
Thu 05:00 AM  37.9°F  43°F  calm  4 mph  none  0.00"  70%  70%  29°F  33°F  N/A
Thu 04:00 AM  39.9°F  42°F  calm  4 mph  none  0.00"  67%  70%  29°F  33°F  N/A
Thu 03:00 AM  39.6°F  42°F  calm  4 mph  none  0.00"  64%  71%  28°F  33°F  N/A
Thu 02:00 AM  40.0°F  42°F  calm  4 mph  none  0.00"  56%  71%  25°F  33°F  N/A
3Thu 01:03 AM  36.4°F  42°F  calm  3 mph  none  ----  60%  72%  23°F  33°F  N/A
Thu 01:00 AM  36.5°F  42°F  calm  4 mph  none  0.00"  60%  72%  23°F  33°F  N/A
Thu 12:00 AM  39.6°F  43°F  calm  3 mph  none  0.00"  54%  72%  23°F  34°F  N/A
Wed 11:00 PM  35.5°F  43°F  calm  3 mph  none  0.00"  57%  72%  21°F  34°F  N/A
Wed 10:00 PM  36.2°F  43°F  calm  3 mph  none  0.00"  56%  72%  21°F  35°F  N/A
Wed 09:00 PM  43.2°F  44°F  calm  4 mph  none  0.00"  44%  71%  22°F  35°F  N/A
Wed 08:00 PM  47.7°F  45°F  calm  4 mph  none  0.00"  37%  70%  21°F  35°F  N/A
Wed 07:00 PM  47.3°F  46°F  calm  4 mph  none  0.00"  37%  69%  21°F  36°F  N/A
Wed 06:00 PM  50.5°F  47°F  calm  4 mph  none  0.00"  33%  67%  21°F  36°F  N/A
Wed 05:00 PM  52.5°F  50°F  calm  4 mph  none  0.00"  31%  62%  21°F  37°F  N/A
Wed 04:00 PM  56.4°F  54°F  calm  6 mph  none  0.00"  28%  55%  22°F  38°F  N/A
Wed 03:00 PM  60.1°F  56°F  calm  7 mph  none  0.00"  23%  51%  21°F  38°F  N/A
Wed 02:00 PM  62.5°F  58°F  calm  7 mph  none  0.00"  22%  49%  21°F  38°F  N/A
Wed 01:00 PM  62.0°F  58°F  calm  8 mph  1 mph  0.00"  22%  48%  21°F  38°F  N/A
Wed 12:00 PM  62.8°F  58°F  calm  8 mph  none  0.00"  22%  48%  22°F  37°F  N/A
Wed 11:00 AM  60.9°F  57°F  calm  7 mph  none  0.00"  24%  49%  22°F  37°F  N/A
Wed 10:00 AM  60.6°F  55°F  calm  7 mph  none  0.00"  25%  52%  23°F  37°F  N/A

  1. Current weather data. No green row appears if the current weather data is also the high or low for the current day.
  2. High temperature for the current day.
  3. Low temperature for the current day.

The Anza, California weather pages are a service of WeatherCurrents. The Anza Valley is southwestern Riverside County, east of Temecula and Aguanga, south of Mount San Jacinto and west of Mount Santa Rosa.
Copyright ©2021  WeatherCurrents. All rights reserved. - Submit questions and comments - Privacy Policy

This page automatically refreshes every 10 minutes.